sensor_id;sensor_type;location;lat;lon;timestamp;P1;durP1;ratioP1;P2;durP2;ratioP2
73585;SDS011;61865;50.232;18.614;2024-01-30T00:01:17;22.48;;;11.52;;
73585;SDS011;61865;50.232;18.614;2024-01-30T00:03:39;23.83;;;11.68;;
73585;SDS011;61865;50.232;18.614;2024-01-30T00:06:02;29.33;;;12.00;;
73585;SDS011;61865;50.232;18.614;2024-01-30T00:08:25;20.27;;;10.73;;
73585;SDS011;61865;50.232;18.614;2024-01-30T00:10:48;29.67;;;10.63;;
73585;SDS011;61865;50.232;18.614;2024-01-30T00:13:10;25.60;;;10.55;;
73585;SDS011;61865;50.232;18.614;2024-01-30T00:15:35;22.90;;;11.82;;
73585;SDS011;61865;50.232;18.614;2024-01-30T00:17:57;23.00;;;10.60;;
73585;SDS011;61865;50.232;18.614;2024-01-30T00:20:20;23.33;;;11.55;;
73585;SDS011;61865;50.232;18.614;2024-01-30T00:22:42;18.80;;;11.02;;
73585;SDS011;61865;50.232;18.614;2024-01-30T00:25:05;22.75;;;11.63;;
73585;SDS011;61865;50.232;18.614;2024-01-30T00:27:27;20.10;;;10.98;;
73585;SDS011;61865;50.232;18.614;2024-01-30T00:29:49;25.60;;;10.07;;
73585;SDS011;61865;50.232;18.614;2024-01-30T00:32:13;19.08;;;9.55;;
73585;SDS011;61865;50.232;18.614;2024-01-30T00:34:38;20.05;;;11.20;;
73585;SDS011;61865;50.232;18.614;2024-01-30T00:37:01;19.67;;;10.00;;
73585;SDS011;61865;50.232;18.614;2024-01-30T00:39:23;23.95;;;11.55;;
73585;SDS011;61865;50.232;18.614;2024-01-30T00:41:45;16.98;;;10.32;;
73585;SDS011;61865;50.232;18.614;2024-01-30T00:44:07;16.67;;;10.70;;
73585;SDS011;61865;50.232;18.614;2024-01-30T00:46:30;19.90;;;11.00;;
73585;SDS011;61865;50.232;18.614;2024-01-30T00:48:53;18.40;;;10.38;;
73585;SDS011;61865;50.232;18.614;2024-01-30T00:51:15;15.73;;;9.57;;
73585;SDS011;61865;50.232;18.614;2024-01-30T00:53:38;20.45;;;10.63;;
73585;SDS011;61865;50.232;18.614;2024-01-30T00:56:01;17.70;;;10.45;;
73585;SDS011;61865;50.232;18.614;2024-01-30T00:58:24;16.52;;;10.13;;
73585;SDS011;61865;50.232;18.614;2024-01-30T01:00:46;26.52;;;10.93;;
73585;SDS011;61865;50.232;18.614;2024-01-30T01:03:08;16.85;;;10.63;;
73585;SDS011;61865;50.232;18.614;2024-01-30T01:05:32;18.08;;;9.00;;
73585;SDS011;61865;50.232;18.614;2024-01-30T01:07:54;13.15;;;7.45;;
73585;SDS011;61865;50.232;18.614;2024-01-30T01:10:16;15.43;;;8.55;;
73585;SDS011;61865;50.232;18.614;2024-01-30T01:12:39;16.70;;;9.07;;
73585;SDS011;61865;50.232;18.614;2024-01-30T01:15:01;19.85;;;9.23;;
73585;SDS011;61865;50.232;18.614;2024-01-30T01:17:23;17.05;;;9.15;;
73585;SDS011;61865;50.232;18.614;2024-01-30T01:19:45;19.48;;;9.82;;
73585;SDS011;61865;50.232;18.614;2024-01-30T01:22:09;20.27;;;9.30;;
73585;SDS011;61865;50.232;18.614;2024-01-30T01:24:31;20.52;;;9.15;;
73585;SDS011;61865;50.232;18.614;2024-01-30T01:26:54;16.27;;;9.45;;
73585;SDS011;61865;50.232;18.614;2024-01-30T01:29:17;13.82;;;8.35;;
73585;SDS011;61865;50.232;18.614;2024-01-30T01:31:41;20.17;;;9.13;;
73585;SDS011;61865;50.232;18.614;2024-01-30T01:34:08;18.30;;;8.93;;
73585;SDS011;61865;50.232;18.614;2024-01-30T01:36:31;14.60;;;8.63;;
73585;SDS011;61865;50.232;18.614;2024-01-30T01:38:54;18.13;;;8.52;;
73585;SDS011;61865;50.232;18.614;2024-01-30T01:41:17;18.40;;;9.18;;
73585;SDS011;61865;50.232;18.614;2024-01-30T01:43:39;18.17;;;8.18;;
73585;SDS011;61865;50.232;18.614;2024-01-30T01:46:01;20.50;;;9.02;;
73585;SDS011;61865;50.232;18.614;2024-01-30T01:48:24;18.35;;;9.13;;
73585;SDS011;61865;50.232;18.614;2024-01-30T01:50:46;19.58;;;10.43;;
73585;SDS011;61865;50.232;18.614;2024-01-30T01:53:09;17.85;;;10.38;;
73585;SDS011;61865;50.232;18.614;2024-01-30T01:55:32;20.20;;;11.57;;
73585;SDS011;61865;50.232;18.614;2024-01-30T01:57:55;21.20;;;13.52;;
73585;SDS011;61865;50.232;18.614;2024-01-30T02:00:18;19.10;;;11.45;;
73585;SDS011;61865;50.232;18.614;2024-01-30T02:02:40;21.60;;;11.30;;
73585;SDS011;61865;50.232;18.614;2024-01-30T02:05:03;27.73;;;13.73;;
73585;SDS011;61865;50.232;18.614;2024-01-30T02:07:25;22.10;;;9.57;;
73585;SDS011;61865;50.232;18.614;2024-01-30T02:09:49;18.77;;;11.13;;
73585;SDS011;61865;50.232;18.614;2024-01-30T02:12:12;18.25;;;9.30;;
73585;SDS011;61865;50.232;18.614;2024-01-30T02:14:43;12.23;;;7.43;;
73585;SDS011;61865;50.232;18.614;2024-01-30T02:17:06;19.13;;;9.43;;
73585;SDS011;61865;50.232;18.614;2024-01-30T02:19:28;16.60;;;8.73;;
73585;SDS011;61865;50.232;18.614;2024-01-30T02:21:52;17.27;;;7.78;;
73585;SDS011;61865;50.232;18.614;2024-01-30T02:24:14;16.20;;;8.02;;
73585;SDS011;61865;50.232;18.614;2024-01-30T02:26:36;13.20;;;7.05;;
73585;SDS011;61865;50.232;18.614;2024-01-30T02:28:59;14.05;;;6.85;;
73585;SDS011;61865;50.232;18.614;2024-01-30T02:31:21;13.25;;;7.97;;
73585;SDS011;61865;50.232;18.614;2024-01-30T02:36:04;14.20;;;7.28;;
73585;SDS011;61865;50.232;18.614;2024-01-30T02:38:28;12.30;;;7.63;;
73585;SDS011;61865;50.232;18.614;2024-01-30T02:40:50;13.60;;;7.13;;
73585;SDS011;61865;50.232;18.614;2024-01-30T02:43:12;12.27;;;7.00;;
73585;SDS011;61865;50.232;18.614;2024-01-30T02:45:35;14.23;;;7.35;;
73585;SDS011;61865;50.232;18.614;2024-01-30T02:47:57;15.65;;;8.32;;
73585;SDS011;61865;50.232;18.614;2024-01-30T02:50:19;14.93;;;6.90;;
73585;SDS011;61865;50.232;18.614;2024-01-30T02:52:42;13.25;;;7.45;;
73585;SDS011;61865;50.232;18.614;2024-01-30T02:55:07;11.32;;;7.47;;
73585;SDS011;61865;50.232;18.614;2024-01-30T02:57:29;13.45;;;8.27;;
73585;SDS011;61865;50.232;18.614;2024-01-30T02:59:53;16.17;;;8.10;;
73585;SDS011;61865;50.232;18.614;2024-01-30T03:02:15;15.35;;;8.18;;
73585;SDS011;61865;50.232;18.614;2024-01-30T03:04:37;15.05;;;8.40;;
73585;SDS011;61865;50.232;18.614;2024-01-30T03:07:02;13.32;;;8.10;;
73585;SDS011;61865;50.232;18.614;2024-01-30T03:09:25;14.68;;;7.10;;
73585;SDS011;61865;50.232;18.614;2024-01-30T03:11:48;15.88;;;8.65;;
73585;SDS011;61865;50.232;18.614;2024-01-30T03:14:10;13.85;;;8.10;;
73585;SDS011;61865;50.232;18.614;2024-01-30T03:16:33;15.40;;;8.70;;
73585;SDS011;61865;50.232;18.614;2024-01-30T03:18:55;15.60;;;8.20;;
73585;SDS011;61865;50.232;18.614;2024-01-30T03:21:17;13.35;;;7.35;;
73585;SDS011;61865;50.232;18.614;2024-01-30T03:23:39;16.73;;;9.07;;
73585;SDS011;61865;50.232;18.614;2024-01-30T03:26:02;15.18;;;8.27;;
73585;SDS011;61865;50.232;18.614;2024-01-30T03:28:28;15.75;;;8.55;;
73585;SDS011;61865;50.232;18.614;2024-01-30T03:30:50;16.20;;;8.45;;
73585;SDS011;61865;50.232;18.614;2024-01-30T03:33:12;11.13;;;7.10;;
73585;SDS011;61865;50.232;18.614;2024-01-30T03:35:34;13.50;;;7.38;;
73585;SDS011;61865;50.232;18.614;2024-01-30T03:37:57;12.50;;;6.82;;
73585;SDS011;61865;50.232;18.614;2024-01-30T03:40:19;11.25;;;7.32;;
73585;SDS011;61865;50.232;18.614;2024-01-30T03:42:41;14.55;;;8.02;;
73585;SDS011;61865;50.232;18.614;2024-01-30T03:45:06;12.43;;;7.32;;
73585;SDS011;61865;50.232;18.614;2024-01-30T03:47:28;13.50;;;7.80;;
73585;SDS011;61865;50.232;18.614;2024-01-30T03:49:50;14.98;;;8.77;;
73585;SDS011;61865;50.232;18.614;2024-01-30T03:52:12;11.52;;;6.97;;
73585;SDS011;61865;50.232;18.614;2024-01-30T03:54:35;10.40;;;6.88;;
73585;SDS011;61865;50.232;18.614;2024-01-30T03:57:00;13.30;;;7.85;;
73585;SDS011;61865;50.232;18.614;2024-01-30T03:59:23;14.30;;;7.57;;
73585;SDS011;61865;50.232;18.614;2024-01-30T04:01:47;15.35;;;8.27;;
73585;SDS011;61865;50.232;18.614;2024-01-30T04:04:09;18.52;;;7.32;;
73585;SDS011;61865;50.232;18.614;2024-01-30T04:06:32;19.35;;;8.90;;
73585;SDS011;61865;50.232;18.614;2024-01-30T04:08:54;23.77;;;8.70;;
73585;SDS011;61865;50.232;18.614;2024-01-30T04:11:17;15.77;;;7.65;;
73585;SDS011;61865;50.232;18.614;2024-01-30T04:13:40;15.52;;;7.68;;
73585;SDS011;61865;50.232;18.614;2024-01-30T04:16:03;17.27;;;7.80;;
73585;SDS011;61865;50.232;18.614;2024-01-30T04:18:27;12.43;;;7.97;;
73585;SDS011;61865;50.232;18.614;2024-01-30T04:20:49;14.93;;;8.10;;
73585;SDS011;61865;50.232;18.614;2024-01-30T04:23:12;12.07;;;7.85;;
73585;SDS011;61865;50.232;18.614;2024-01-30T04:25:34;14.20;;;7.82;;
73585;SDS011;61865;50.232;18.614;2024-01-30T04:30:17;11.90;;;6.93;;
73585;SDS011;61865;50.232;18.614;2024-01-30T04:32:39;17.27;;;8.25;;
73585;SDS011;61865;50.232;18.614;2024-01-30T04:35:04;11.30;;;7.18;;
73585;SDS011;61865;50.232;18.614;2024-01-30T04:37:26;13.27;;;7.82;;
73585;SDS011;61865;50.232;18.614;2024-01-30T04:39:48;17.25;;;7.65;;
73585;SDS011;61865;50.232;18.614;2024-01-30T04:42:11;16.60;;;8.27;;
73585;SDS011;61865;50.232;18.614;2024-01-30T04:44:33;12.63;;;7.47;;
73585;SDS011;61865;50.232;18.614;2024-01-30T04:46:55;14.30;;;7.72;;
73585;SDS011;61865;50.232;18.614;2024-01-30T04:49:19;14.05;;;7.57;;
73585;SDS011;61865;50.232;18.614;2024-01-30T04:51:42;17.75;;;9.10;;
73585;SDS011;61865;50.232;18.614;2024-01-30T04:54:05;12.18;;;7.10;;
73585;SDS011;61865;50.232;18.614;2024-01-30T04:56:27;14.38;;;7.50;;
73585;SDS011;61865;50.232;18.614;2024-01-30T04:58:49;16.20;;;8.65;;
73585;SDS011;61865;50.232;18.614;2024-01-30T05:01:14;14.90;;;7.80;;
73585;SDS011;61865;50.232;18.614;2024-01-30T05:03:37;12.60;;;7.25;;
73585;SDS011;61865;50.232;18.614;2024-01-30T05:05:59;13.55;;;7.93;;
73585;SDS011;61865;50.232;18.614;2024-01-30T05:08:23;17.73;;;7.93;;
73585;SDS011;61865;50.232;18.614;2024-01-30T05:10:45;12.68;;;6.97;;
73585;SDS011;61865;50.232;18.614;2024-01-30T05:13:10;11.85;;;7.15;;
73585;SDS011;61865;50.232;18.614;2024-01-30T05:15:33;15.35;;;7.65;;
73585;SDS011;61865;50.232;18.614;2024-01-30T05:17:56;16.95;;;8.30;;
73585;SDS011;61865;50.232;18.614;2024-01-30T05:20:19;12.60;;;7.97;;
73585;SDS011;61865;50.232;18.614;2024-01-30T05:22:41;17.02;;;7.53;;
73585;SDS011;61865;50.232;18.614;2024-01-30T05:25:07;15.05;;;8.27;;
73585;SDS011;61865;50.232;18.614;2024-01-30T05:27:29;13.30;;;7.47;;
73585;SDS011;61865;50.232;18.614;2024-01-30T05:29:51;11.80;;;7.43;;
73585;SDS011;61865;50.232;18.614;2024-01-30T05:32:13;13.10;;;7.78;;
73585;SDS011;61865;50.232;18.614;2024-01-30T05:34:36;16.13;;;8.07;;
73585;SDS011;61865;50.232;18.614;2024-01-30T05:39:19;13.65;;;7.57;;
73585;SDS011;61865;50.232;18.614;2024-01-30T05:41:43;15.68;;;8.50;;
73585;SDS011;61865;50.232;18.614;2024-01-30T05:44:05;16.00;;;9.07;;
73585;SDS011;61865;50.232;18.614;2024-01-30T05:46:27;18.55;;;8.80;;
73585;SDS011;61865;50.232;18.614;2024-01-30T05:48:49;19.20;;;8.18;;
73585;SDS011;61865;50.232;18.614;2024-01-30T05:51:13;16.17;;;8.60;;
73585;SDS011;61865;50.232;18.614;2024-01-30T05:53:35;12.85;;;7.93;;
73585;SDS011;61865;50.232;18.614;2024-01-30T05:55:58;18.00;;;8.95;;
73585;SDS011;61865;50.232;18.614;2024-01-30T05:58:22;17.80;;;9.05;;
73585;SDS011;61865;50.232;18.614;2024-01-30T06:00:44;16.23;;;8.23;;
73585;SDS011;61865;50.232;18.614;2024-01-30T06:03:07;26.23;;;9.60;;
73585;SDS011;61865;50.232;18.614;2024-01-30T06:05:29;15.57;;;8.93;;
73585;SDS011;61865;50.232;18.614;2024-01-30T06:07:51;17.33;;;8.88;;
73585;SDS011;61865;50.232;18.614;2024-01-30T06:10:13;17.85;;;9.55;;
73585;SDS011;61865;50.232;18.614;2024-01-30T06:12:36;18.00;;;9.73;;
73585;SDS011;61865;50.232;18.614;2024-01-30T06:15:00;15.57;;;9.38;;
73585;SDS011;61865;50.232;18.614;2024-01-30T06:17:25;28.38;;;13.95;;
73585;SDS011;61865;50.232;18.614;2024-01-30T06:19:47;38.03;;;16.60;;
73585;SDS011;61865;50.232;18.614;2024-01-30T06:22:10;29.42;;;14.95;;
73585;SDS011;61865;50.232;18.614;2024-01-30T06:24:32;27.50;;;14.75;;
73585;SDS011;61865;50.232;18.614;2024-01-30T06:26:55;31.05;;;16.42;;
73585;SDS011;61865;50.232;18.614;2024-01-30T06:29:17;24.48;;;14.95;;
73585;SDS011;61865;50.232;18.614;2024-01-30T06:31:41;18.65;;;9.40;;
73585;SDS011;61865;50.232;18.614;2024-01-30T06:34:03;14.95;;;8.70;;
73585;SDS011;61865;50.232;18.614;2024-01-30T06:36:25;15.75;;;9.52;;
73585;SDS011;61865;50.232;18.614;2024-01-30T06:38:47;15.27;;;9.00;;
73585;SDS011;61865;50.232;18.614;2024-01-30T06:41:10;17.52;;;9.00;;
73585;SDS011;61865;50.232;18.614;2024-01-30T06:43:32;15.18;;;8.60;;
73585;SDS011;61865;50.232;18.614;2024-01-30T06:45:55;11.02;;;7.90;;
73585;SDS011;61865;50.232;18.614;2024-01-30T06:48:18;14.27;;;8.18;;
73585;SDS011;61865;50.232;18.614;2024-01-30T06:50:40;15.20;;;7.68;;
73585;SDS011;61865;50.232;18.614;2024-01-30T06:53:03;13.50;;;7.10;;
73585;SDS011;61865;50.232;18.614;2024-01-30T06:55:25;14.88;;;8.32;;
73585;SDS011;61865;50.232;18.614;2024-01-30T06:57:47;16.38;;;8.02;;
73585;SDS011;61865;50.232;18.614;2024-01-30T07:00:10;16.98;;;8.00;;
73585;SDS011;61865;50.232;18.614;2024-01-30T07:02:33;18.63;;;7.78;;
73585;SDS011;61865;50.232;18.614;2024-01-30T07:04:57;16.75;;;7.85;;
73585;SDS011;61865;50.232;18.614;2024-01-30T07:07:20;16.20;;;8.45;;
73585;SDS011;61865;50.232;18.614;2024-01-30T07:09:42;14.15;;;7.70;;
73585;SDS011;61865;50.232;18.614;2024-01-30T07:12:04;18.77;;;8.32;;
73585;SDS011;61865;50.232;18.614;2024-01-30T07:14:27;13.00;;;7.63;;
73585;SDS011;61865;50.232;18.614;2024-01-30T07:16:49;13.65;;;8.88;;
73585;SDS011;61865;50.232;18.614;2024-01-30T07:19:12;13.18;;;7.47;;
73585;SDS011;61865;50.232;18.614;2024-01-30T07:21:35;19.60;;;8.38;;
73585;SDS011;61865;50.232;18.614;2024-01-30T07:23:58;15.75;;;7.57;;
73585;SDS011;61865;50.232;18.614;2024-01-30T07:26:20;14.38;;;7.95;;
73585;SDS011;61865;50.232;18.614;2024-01-30T07:28:43;17.52;;;8.05;;
73585;SDS011;61865;50.232;18.614;2024-01-30T07:31:05;15.48;;;8.43;;
73585;SDS011;61865;50.232;18.614;2024-01-30T07:33:27;13.63;;;7.70;;
73585;SDS011;61865;50.232;18.614;2024-01-30T07:35:49;14.10;;;7.88;;
73585;SDS011;61865;50.232;18.614;2024-01-30T07:38:13;10.45;;;7.15;;
73585;SDS011;61865;50.232;18.614;2024-01-30T07:40:35;16.63;;;7.78;;
73585;SDS011;61865;50.232;18.614;2024-01-30T07:42:58;14.38;;;8.02;;
73585;SDS011;61865;50.232;18.614;2024-01-30T07:45:20;14.02;;;8.15;;
73585;SDS011;61865;50.232;18.614;2024-01-30T07:47:44;16.63;;;8.43;;
73585;SDS011;61865;50.232;18.614;2024-01-30T07:50:07;11.27;;;7.05;;
73585;SDS011;61865;50.232;18.614;2024-01-30T07:52:29;13.73;;;7.50;;
73585;SDS011;61865;50.232;18.614;2024-01-30T07:54:53;17.38;;;8.23;;
73585;SDS011;61865;50.232;18.614;2024-01-30T07:57:15;17.65;;;8.35;;
73585;SDS011;61865;50.232;18.614;2024-01-30T07:59:38;13.15;;;6.97;;
73585;SDS011;61865;50.232;18.614;2024-01-30T08:02:00;11.68;;;6.57;;
73585;SDS011;61865;50.232;18.614;2024-01-30T08:04:22;18.17;;;8.20;;
73585;SDS011;61865;50.232;18.614;2024-01-30T08:06:45;12.13;;;5.53;;
73585;SDS011;61865;50.232;18.614;2024-01-30T08:09:07;15.98;;;8.07;;
73585;SDS011;61865;50.232;18.614;2024-01-30T08:11:30;14.20;;;7.18;;
73585;SDS011;61865;50.232;18.614;2024-01-30T08:13:53;15.38;;;7.72;;
73585;SDS011;61865;50.232;18.614;2024-01-30T08:16:15;11.50;;;7.20;;
73585;SDS011;61865;50.232;18.614;2024-01-30T08:18:37;13.45;;;7.47;;
73585;SDS011;61865;50.232;18.614;2024-01-30T08:21:00;13.38;;;6.38;;
73585;SDS011;61865;50.232;18.614;2024-01-30T08:23:22;14.00;;;6.53;;
73585;SDS011;61865;50.232;18.614;2024-01-30T08:25:45;7.70;;;4.65;;
73585;SDS011;61865;50.232;18.614;2024-01-30T08:28:08;11.43;;;6.82;;
73585;SDS011;61865;50.232;18.614;2024-01-30T08:30:30;20.17;;;6.43;;
73585;SDS011;61865;50.232;18.614;2024-01-30T08:32:53;11.50;;;5.93;;
73585;SDS011;61865;50.232;18.614;2024-01-30T08:35:16;13.70;;;6.55;;
73585;SDS011;61865;50.232;18.614;2024-01-30T08:37:38;11.32;;;6.28;;
73585;SDS011;61865;50.232;18.614;2024-01-30T08:40:01;14.38;;;7.00;;
73585;SDS011;61865;50.232;18.614;2024-01-30T08:42:24;14.52;;;6.15;;
73585;SDS011;61865;50.232;18.614;2024-01-30T08:44:48;15.93;;;8.02;;
73585;SDS011;61865;50.232;18.614;2024-01-30T08:47:11;15.85;;;7.35;;
73585;SDS011;61865;50.232;18.614;2024-01-30T08:49:33;12.13;;;7.25;;
73585;SDS011;61865;50.232;18.614;2024-01-30T08:51:56;10.68;;;6.20;;
73585;SDS011;61865;50.232;18.614;2024-01-30T08:54:18;12.18;;;6.53;;
73585;SDS011;61865;50.232;18.614;2024-01-30T08:56:40;12.85;;;6.75;;
73585;SDS011;61865;50.232;18.614;2024-01-30T08:59:03;12.18;;;6.25;;
73585;SDS011;61865;50.232;18.614;2024-01-30T09:01:27;9.90;;;5.72;;
73585;SDS011;61865;50.232;18.614;2024-01-30T09:03:49;12.82;;;6.47;;
73585;SDS011;61865;50.232;18.614;2024-01-30T09:06:11;15.48;;;6.95;;
73585;SDS011;61865;50.232;18.614;2024-01-30T09:08:33;6.85;;;4.72;;
73585;SDS011;61865;50.232;18.614;2024-01-30T09:10:56;13.85;;;7.03;;
73585;SDS011;61865;50.232;18.614;2024-01-30T09:13:18;13.07;;;7.15;;
73585;SDS011;61865;50.232;18.614;2024-01-30T09:15:41;14.05;;;7.35;;
73585;SDS011;61865;50.232;18.614;2024-01-30T09:18:05;16.00;;;7.43;;
73585;SDS011;61865;50.232;18.614;2024-01-30T09:20:28;22.80;;;8.95;;
73585;SDS011;61865;50.232;18.614;2024-01-30T09:22:50;13.25;;;7.60;;
73585;SDS011;61865;50.232;18.614;2024-01-30T09:25:12;14.05;;;8.00;;
73585;SDS011;61865;50.232;18.614;2024-01-30T09:27:35;13.80;;;7.10;;
73585;SDS011;61865;50.232;18.614;2024-01-30T09:29:57;11.23;;;5.85;;
73585;SDS011;61865;50.232;18.614;2024-01-30T09:32:19;9.68;;;5.55;;
73585;SDS011;61865;50.232;18.614;2024-01-30T09:34:43;11.80;;;6.60;;
73585;SDS011;61865;50.232;18.614;2024-01-30T09:37:05;16.92;;;8.02;;
73585;SDS011;61865;50.232;18.614;2024-01-30T09:39:27;16.88;;;6.13;;
73585;SDS011;61865;50.232;18.614;2024-01-30T09:41:51;15.98;;;6.30;;
73585;SDS011;61865;50.232;18.614;2024-01-30T09:44:17;12.48;;;5.68;;
73585;SDS011;61865;50.232;18.614;2024-01-30T09:46:42;14.55;;;6.85;;
73585;SDS011;61865;50.232;18.614;2024-01-30T09:49:04;15.70;;;6.20;;
73585;SDS011;61865;50.232;18.614;2024-01-30T09:51:29;12.75;;;7.10;;
73585;SDS011;61865;50.232;18.614;2024-01-30T09:53:52;9.50;;;6.55;;
73585;SDS011;61865;50.232;18.614;2024-01-30T09:56:15;11.90;;;6.22;;
73585;SDS011;61865;50.232;18.614;2024-01-30T09:58:38;14.00;;;6.82;;
73585;SDS011;61865;50.232;18.614;2024-01-30T10:01:02;16.10;;;7.43;;
73585;SDS011;61865;50.232;18.614;2024-01-30T10:03:24;18.65;;;9.00;;
73585;SDS011;61865;50.232;18.614;2024-01-30T10:05:48;19.27;;;9.60;;
73585;SDS011;61865;50.232;18.614;2024-01-30T10:08:14;19.27;;;9.18;;
73585;SDS011;61865;50.232;18.614;2024-01-30T10:10:39;12.75;;;7.55;;
73585;SDS011;61865;50.232;18.614;2024-01-30T10:13:01;16.30;;;8.55;;
73585;SDS011;61865;50.232;18.614;2024-01-30T10:15:24;14.60;;;7.78;;
73585;SDS011;61865;50.232;18.614;2024-01-30T10:17:47;15.98;;;7.10;;
73585;SDS011;61865;50.232;18.614;2024-01-30T10:20:10;13.05;;;6.40;;
73585;SDS011;61865;50.232;18.614;2024-01-30T10:22:32;16.15;;;7.47;;
73585;SDS011;61865;50.232;18.614;2024-01-30T10:24:56;14.65;;;7.90;;
73585;SDS011;61865;50.232;18.614;2024-01-30T10:27:23;14.02;;;6.55;;
73585;SDS011;61865;50.232;18.614;2024-01-30T10:29:48;11.25;;;6.68;;
73585;SDS011;61865;50.232;18.614;2024-01-30T10:32:10;12.70;;;6.97;;
73585;SDS011;61865;50.232;18.614;2024-01-30T10:34:33;15.50;;;7.82;;
73585;SDS011;61865;50.232;18.614;2024-01-30T10:36:59;20.73;;;7.50;;
73585;SDS011;61865;50.232;18.614;2024-01-30T10:39:22;12.25;;;6.68;;
73585;SDS011;61865;50.232;18.614;2024-01-30T10:41:46;10.82;;;6.22;;
73585;SDS011;61865;50.232;18.614;2024-01-30T10:44:09;11.52;;;6.45;;
73585;SDS011;61865;50.232;18.614;2024-01-30T10:46:32;13.23;;;7.25;;
73585;SDS011;61865;50.232;18.614;2024-01-30T10:48:56;14.48;;;7.45;;
73585;SDS011;61865;50.232;18.614;2024-01-30T10:51:19;14.63;;;7.65;;
73585;SDS011;61865;50.232;18.614;2024-01-30T10:53:42;18.45;;;8.63;;
73585;SDS011;61865;50.232;18.614;2024-01-30T10:56:06;17.48;;;8.00;;
73585;SDS011;61865;50.232;18.614;2024-01-30T10:58:31;15.32;;;6.80;;
73585;SDS011;61865;50.232;18.614;2024-01-30T11:06:40;11.63;;;5.60;;
73585;SDS011;61865;50.232;18.614;2024-01-30T11:09:03;15.20;;;7.28;;
73585;SDS011;61865;50.232;18.614;2024-01-30T11:11:29;13.93;;;6.97;;
73585;SDS011;61865;50.232;18.614;2024-01-30T11:13:53;16.13;;;6.45;;
73585;SDS011;61865;50.232;18.614;2024-01-30T11:16:15;16.50;;;7.25;;
73585;SDS011;61865;50.232;18.614;2024-01-30T11:18:38;9.02;;;5.15;;
73585;SDS011;61865;50.232;18.614;2024-01-30T11:21:00;13.40;;;7.22;;
73585;SDS011;61865;50.232;18.614;2024-01-30T11:23:22;19.85;;;7.65;;
73585;SDS011;61865;50.232;18.614;2024-01-30T11:25:45;16.17;;;7.72;;
73585;SDS011;61865;50.232;18.614;2024-01-30T11:28:07;16.45;;;8.00;;
73585;SDS011;61865;50.232;18.614;2024-01-30T11:30:36;16.35;;;7.20;;
73585;SDS011;61865;50.232;18.614;2024-01-30T11:33:00;12.25;;;6.70;;
73585;SDS011;61865;50.232;18.614;2024-01-30T11:35:21;13.57;;;7.10;;
73585;SDS011;61865;50.232;18.614;2024-01-30T11:37:44;13.93;;;6.82;;
73585;SDS011;61865;50.232;18.614;2024-01-30T11:40:09;9.85;;;5.63;;
73585;SDS011;61865;50.232;18.614;2024-01-30T11:42:32;13.25;;;6.40;;
73585;SDS011;61865;50.232;18.614;2024-01-30T11:44:54;15.82;;;7.25;;
73585;SDS011;61865;50.232;18.614;2024-01-30T11:47:19;20.27;;;7.43;;
73585;SDS011;61865;50.232;18.614;2024-01-30T11:49:41;15.05;;;4.97;;
73585;SDS011;61865;50.232;18.614;2024-01-30T11:52:04;12.95;;;6.57;;
73585;SDS011;61865;50.232;18.614;2024-01-30T11:54:27;15.48;;;6.88;;
73585;SDS011;61865;50.232;18.614;2024-01-30T11:56:49;13.98;;;5.93;;
73585;SDS011;61865;50.232;18.614;2024-01-30T11:59:11;10.43;;;6.32;;
73585;SDS011;61865;50.232;18.614;2024-01-30T12:01:34;17.35;;;7.25;;
73585;SDS011;61865;50.232;18.614;2024-01-30T12:03:57;12.13;;;6.68;;
73585;SDS011;61865;50.232;18.614;2024-01-30T12:06:20;11.95;;;6.70;;
73585;SDS011;61865;50.232;18.614;2024-01-30T12:08:42;13.52;;;7.22;;
73585;SDS011;61865;50.232;18.614;2024-01-30T12:11:06;12.75;;;6.35;;
73585;SDS011;61865;50.232;18.614;2024-01-30T12:13:28;15.10;;;7.45;;
73585;SDS011;61865;50.232;18.614;2024-01-30T12:15:51;12.98;;;6.00;;
73585;SDS011;61865;50.232;18.614;2024-01-30T12:18:13;16.73;;;6.35;;
73585;SDS011;61865;50.232;18.614;2024-01-30T12:20:37;12.07;;;6.15;;
73585;SDS011;61865;50.232;18.614;2024-01-30T12:22:59;13.98;;;7.07;;
73585;SDS011;61865;50.232;18.614;2024-01-30T12:25:21;11.57;;;5.82;;
73585;SDS011;61865;50.232;18.614;2024-01-30T12:27:44;19.52;;;7.68;;
73585;SDS011;61865;50.232;18.614;2024-01-30T12:30:10;14.00;;;6.80;;
73585;SDS011;61865;50.232;18.614;2024-01-30T12:32:34;10.52;;;6.07;;
73585;SDS011;61865;50.232;18.614;2024-01-30T12:34:57;15.40;;;6.90;;
73585;SDS011;61865;50.232;18.614;2024-01-30T12:37:21;12.25;;;5.80;;
73585;SDS011;61865;50.232;18.614;2024-01-30T12:39:45;11.15;;;6.32;;
73585;SDS011;61865;50.232;18.614;2024-01-30T12:42:07;8.57;;;5.30;;
73585;SDS011;61865;50.232;18.614;2024-01-30T12:44:29;13.10;;;6.15;;
73585;SDS011;61865;50.232;18.614;2024-01-30T12:46:51;10.82;;;6.63;;
73585;SDS011;61865;50.232;18.614;2024-01-30T12:49:14;9.00;;;5.93;;
73585;SDS011;61865;50.232;18.614;2024-01-30T12:51:36;16.13;;;7.13;;
73585;SDS011;61865;50.232;18.614;2024-01-30T12:54:04;10.40;;;6.63;;
73585;SDS011;61865;50.232;18.614;2024-01-30T12:56:27;15.68;;;7.03;;
73585;SDS011;61865;50.232;18.614;2024-01-30T12:58:49;12.00;;;6.18;;
73585;SDS011;61865;50.232;18.614;2024-01-30T13:01:11;9.82;;;5.70;;
73585;SDS011;61865;50.232;18.614;2024-01-30T13:03:33;11.82;;;6.50;;
73585;SDS011;61865;50.232;18.614;2024-01-30T13:05:56;11.18;;;6.13;;
73585;SDS011;61865;50.232;18.614;2024-01-30T13:08:18;11.25;;;6.13;;
73585;SDS011;61865;50.232;18.614;2024-01-30T13:10:42;12.77;;;6.75;;
73585;SDS011;61865;50.232;18.614;2024-01-30T13:13:04;11.88;;;6.65;;
73585;SDS011;61865;50.232;18.614;2024-01-30T13:15:26;7.18;;;4.13;;
73585;SDS011;61865;50.232;18.614;2024-01-30T13:17:49;16.27;;;6.38;;
73585;SDS011;61865;50.232;18.614;2024-01-30T13:20:14;14.02;;;6.60;;
73585;SDS011;61865;50.232;18.614;2024-01-30T13:22:39;9.60;;;5.97;;
73585;SDS011;61865;50.232;18.614;2024-01-30T13:25:02;12.63;;;6.22;;
73585;SDS011;61865;50.232;18.614;2024-01-30T13:27:25;10.60;;;5.57;;
73585;SDS011;61865;50.232;18.614;2024-01-30T13:29:48;12.73;;;5.53;;
73585;SDS011;61865;50.232;18.614;2024-01-30T13:32:10;11.68;;;6.00;;
73585;SDS011;61865;50.232;18.614;2024-01-30T13:34:32;12.48;;;6.90;;
73585;SDS011;61865;50.232;18.614;2024-01-30T13:36:54;11.32;;;6.38;;
73585;SDS011;61865;50.232;18.614;2024-01-30T13:39:17;8.60;;;5.00;;
73585;SDS011;61865;50.232;18.614;2024-01-30T13:41:39;15.48;;;7.28;;
73585;SDS011;61865;50.232;18.614;2024-01-30T13:44:03;12.52;;;6.50;;
73585;SDS011;61865;50.232;18.614;2024-01-30T13:46:26;12.10;;;6.88;;
73585;SDS011;61865;50.232;18.614;2024-01-30T13:48:48;12.07;;;6.72;;
73585;SDS011;61865;50.232;18.614;2024-01-30T13:51:10;12.30;;;6.65;;
73585;SDS011;61865;50.232;18.614;2024-01-30T13:53:33;10.18;;;6.03;;
73585;SDS011;61865;50.232;18.614;2024-01-30T13:55:55;11.50;;;6.38;;
73585;SDS011;61865;50.232;18.614;2024-01-30T13:58:17;11.85;;;5.95;;
73585;SDS011;61865;50.232;18.614;2024-01-30T14:00:41;12.05;;;6.32;;
73585;SDS011;61865;50.232;18.614;2024-01-30T14:03:04;11.70;;;5.97;;
73585;SDS011;61865;50.232;18.614;2024-01-30T14:05:26;12.70;;;6.70;;
73585;SDS011;61865;50.232;18.614;2024-01-30T14:07:49;12.15;;;6.30;;